Time;durP1;ratioP1;P1;durP2;ratioP2;P2;SDS_P1;SDS_P2;PMS_P1;PMS_P2;Temp;Humidity;BMP_temperature;BMP_pressure;BME280_temperature;BME280_humidity;BME280_pressure;Samples;Min_cycle;Max_cycle;Signal;HPM_P1;HPM_P2
2022/12/02 00:02:03;;;;;;;66.63;25.60;;;4.00;99.90;;;;;;5049364;28;20052;-63
2022/12/02 00:04:29;;;;;;;69.95;24.85;;;4.00;99.90;;;;;;5051098;28;20496;-63
2022/12/02 00:06:57;;;;;;;65.10;24.00;;;4.00;99.90;;;;;;5049946;28;20141;-63
2022/12/02 00:09:33;;;;;;;63.85;23.75;;;4.00;99.90;;;;;;5048618;28;20036;-64
2022/12/02 00:12:12;;;;;;;66.05;24.38;;;4.00;99.90;;;;;;5052684;28;20123;-64
2022/12/02 00:14:38;;;;;;;63.53;23.67;;;4.00;99.90;;;;;;5055926;28;20050;-64
2022/12/02 00:17:04;;;;;;;57.20;22.65;;;4.00;99.90;;;;;;5049501;28;20037;-64
2022/12/02 00:19:29;;;;;;;64.88;23.95;;;4.00;99.90;;;;;;5052468;28;20037;-64
2022/12/02 00:21:55;;;;;;;60.28;23.17;;;4.00;99.90;;;;;;5044146;28;20051;-63
2022/12/02 00:26:55;;;;;;;65.75;22.98;;;3.90;99.90;;;;;;5049217;28;20405;-69
2022/12/02 00:29:20;;;;;;;58.58;21.17;;;3.90;99.90;;;;;;5052995;28;20044;-69
2022/12/02 00:31:46;;;;;;;60.50;23.25;;;3.90;99.90;;;;;;5051923;28;20028;-69
2022/12/02 00:34:11;;;;;;;58.40;21.13;;;3.90;99.90;;;;;;5050271;28;20183;-69
2022/12/02 00:36:37;;;;;;;57.90;21.17;;;3.90;99.90;;;;;;5052025;28;20051;-69
2022/12/02 00:39:03;;;;;;;55.72;20.27;;;3.90;99.90;;;;;;5052017;28;20116;-70
2022/12/02 00:41:28;;;;;;;58.25;20.45;;;3.90;99.90;;;;;;5049473;28;20041;-69
2022/12/02 00:46:57;;;;;;;52.50;20.10;;;3.90;99.90;;;;;;5034616;28;20483;-69
2022/12/02 00:49:23;;;;;;;54.70;20.05;;;3.80;99.90;;;;;;5049150;28;20047;-69
2022/12/02 00:51:49;;;;;;;55.20;20.77;;;3.80;99.90;;;;;;5059224;28;20512;-70
2022/12/02 00:54:14;;;;;;;49.38;20.05;;;3.80;99.90;;;;;;5058805;28;20036;-69
2022/12/02 00:56:40;;;;;;;52.58;19.70;;;3.80;99.90;;;;;;5054678;28;20102;-69
2022/12/02 00:59:06;;;;;;;50.85;20.23;;;3.80;99.90;;;;;;5052308;28;20167;-70
2022/12/02 01:01:34;;;;;;;53.17;21.08;;;3.80;99.90;;;;;;5052915;28;20404;-69
2022/12/02 01:04:00;;;;;;;50.03;19.77;;;3.80;99.90;;;;;;5053134;28;20116;-69
2022/12/02 01:06:25;;;;;;;50.97;19.38;;;3.80;99.90;;;;;;5051474;28;20195;-69
2022/12/02 01:08:51;;;;;;;51.75;18.92;;;3.80;99.90;;;;;;5052788;28;20029;-69
2022/12/02 01:11:17;;;;;;;48.05;18.30;;;3.80;99.90;;;;;;5052214;28;20138;-70
2022/12/02 01:13:42;;;;;;;47.20;19.40;;;3.70;99.90;;;;;;5051818;28;20045;-69
2022/12/02 01:16:08;;;;;;;47.25;18.75;;;3.70;99.90;;;;;;5052729;28;20044;-69
2022/12/02 01:18:34;;;;;;;44.08;17.13;;;3.70;99.90;;;;;;5052628;28;20040;-69
2022/12/02 01:21:00;;;;;;;44.30;17.00;;;3.70;99.90;;;;;;5051975;28;20063;-69
2022/12/02 01:23:25;;;;;;;43.08;17.05;;;3.60;99.90;;;;;;5052520;28;20025;-69
2022/12/02 01:25:51;;;;;;;48.35;18.92;;;3.60;99.90;;;;;;5051320;28;20072;-69
2022/12/02 01:28:17;;;;;;;40.38;16.63;;;3.60;99.90;;;;;;5052305;28;20033;-69
2022/12/02 01:30:43;;;;;;;43.00;17.90;;;3.60;99.90;;;;;;5051739;28;20037;-69
2022/12/02 01:33:08;;;;;;;40.42;18.08;;;3.60;99.90;;;;;;5052982;28;20077;-70
2022/12/02 01:35:34;;;;;;;41.55;16.05;;;3.60;99.90;;;;;;5051864;28;20041;-70
2022/12/02 01:38:00;;;;;;;43.65;18.50;;;3.60;99.90;;;;;;5048968;28;20445;-69
2022/12/02 01:40:27;;;;;;;39.00;16.58;;;3.60;99.90;;;;;;5050370;28;20037;-70
2022/12/02 01:42:53;;;;;;;40.28;16.58;;;3.60;99.90;;;;;;5052696;28;20033;-69
2022/12/02 01:45:19;;;;;;;38.72;13.65;;;3.60;99.90;;;;;;5050997;28;20104;-69
2022/12/02 01:47:45;;;;;;;38.92;14.52;;;3.60;99.90;;;;;;5051209;28;20486;-69
2022/12/02 01:50:13;;;;;;;35.28;14.98;;;3.50;99.90;;;;;;5052694;28;20032;-69
2022/12/02 01:52:39;;;;;;;36.38;15.57;;;3.50;99.90;;;;;;5045979;28;20191;-69
2022/12/02 01:55:10;;;;;;;37.63;15.27;;;3.50;99.90;;;;;;5048163;28;20429;-70
2022/12/02 01:57:36;;;;;;;40.42;15.95;;;3.50;99.90;;;;;;5051719;28;20420;-70
2022/12/02 02:00:04;;;;;;;35.17;14.32;;;3.50;99.90;;;;;;5051911;28;20037;-69
2022/12/02 02:02:38;;;;;;;35.92;15.10;;;3.50;99.90;;;;;;5051934;28;20079;-69
2022/12/02 02:05:04;;;;;;;32.13;13.90;;;3.50;99.90;;;;;;5049635;28;20041;-69
2022/12/02 02:07:30;;;;;;;40.25;16.00;;;3.40;99.90;;;;;;5048891;28;20544;-69
2022/12/02 02:09:56;;;;;;;40.55;14.25;;;3.40;99.90;;;;;;5051546;28;20037;-70
2022/12/02 02:12:23;;;;;;;36.28;14.52;;;3.30;99.90;;;;;;5050192;28;20128;-69
2022/12/02 02:14:49;;;;;;;40.47;15.48;;;3.30;99.90;;;;;;5052140;28;20033;-70
2022/12/02 02:17:15;;;;;;;40.75;15.63;;;3.30;99.90;;;;;;5050487;28;20118;-69
2022/12/02 02:19:40;;;;;;;36.90;14.73;;;3.30;99.90;;;;;;5051807;28;20106;-70
2022/12/02 02:22:14;;;;;;;38.58;15.43;;;3.30;99.90;;;;;;5051329;28;20422;-69
2022/12/02 02:24:41;;;;;;;34.25;15.30;;;3.30;99.90;;;;;;5052085;28;20128;-69
2022/12/02 02:27:07;;;;;;;36.25;15.75;;;3.30;99.90;;;;;;5050966;28;20128;-69
2022/12/02 02:29:32;;;;;;;38.58;16.38;;;3.30;99.90;;;;;;5051066;28;20033;-69
2022/12/02 02:31:58;;;;;;;41.70;16.55;;;3.30;99.90;;;;;;5048332;28;20041;-69
2022/12/02 02:34:24;;;;;;;44.35;17.75;;;3.20;99.90;;;;;;5050886;28;20438;-69
2022/12/02 02:36:50;;;;;;;42.63;17.27;;;3.30;99.90;;;;;;5049334;28;20091;-69
2022/12/02 02:39:16;;;;;;;41.85;17.38;;;3.30;99.90;;;;;;5050634;28;20033;-69
2022/12/02 02:41:42;;;;;;;43.80;16.80;;;3.30;99.90;;;;;;5049134;28;20033;-70
2022/12/02 02:44:07;;;;;;;47.33;17.73;;;3.30;99.90;;;;;;5050150;28;20036;-70
2022/12/02 02:46:33;;;;;;;46.28;17.70;;;3.20;99.90;;;;;;5051692;28;20036;-69
2022/12/02 02:48:59;;;;;;;36.40;14.68;;;3.20;99.90;;;;;;5048757;28;20037;-69
2022/12/02 02:51:25;;;;;;;42.72;16.70;;;3.20;99.90;;;;;;5051284;28;20076;-69
2022/12/02 02:53:51;;;;;;;37.97;16.17;;;3.20;99.90;;;;;;5051101;28;20064;-69
2022/12/02 02:56:16;;;;;;;39.78;15.20;;;3.20;99.90;;;;;;5050796;28;20033;-69
2022/12/02 02:58:42;;;;;;;38.53;16.02;;;3.20;99.90;;;;;;5049147;28;20051;-70
2022/12/02 03:01:18;;;;;;;40.08;16.40;;;3.20;99.90;;;;;;5048708;28;20045;-70
2022/12/02 03:03:48;;;;;;;38.20;14.75;;;3.10;99.90;;;;;;5051511;28;20116;-69
2022/12/02 03:06:15;;;;;;;37.37;16.20;;;3.10;99.90;;;;;;5047875;28;20091;-69
2022/12/02 03:08:43;;;;;;;38.08;17.08;;;3.10;99.90;;;;;;5050242;28;20036;-69
2022/12/02 03:11:10;;;;;;;36.85;15.77;;;3.10;99.90;;;;;;5050013;28;20518;-69
2022/12/02 03:13:37;;;;;;;39.47;16.13;;;3.20;99.90;;;;;;5050035;28;20041;-70
2022/12/02 03:16:06;;;;;;;40.30;18.02;;;3.10;99.90;;;;;;5042637;28;20091;-69
2022/12/02 03:18:32;;;;;;;38.30;14.48;;;3.10;99.90;;;;;;5046791;28;20048;-69
2022/12/02 03:20:58;;;;;;;39.55;16.58;;;3.10;99.90;;;;;;5049858;28;20676;-69
2022/12/02 03:23:25;;;;;;;33.95;13.88;;;3.10;99.90;;;;;;5050913;28;20025;-69
2022/12/02 03:25:50;;;;;;;42.25;17.65;;;3.10;99.90;;;;;;5049110;28;20037;-69
2022/12/02 03:28:16;;;;;;;32.80;12.23;;;3.10;99.90;;;;;;5048925;28;20043;-69
2022/12/02 03:30:42;;;;;;;36.63;12.35;;;3.10;99.90;;;;;;5051235;28;20510;-69
2022/12/02 03:33:08;;;;;;;34.35;14.80;;;3.00;99.90;;;;;;5050966;28;20062;-69
2022/12/02 03:35:34;;;;;;;22.77;10.35;;;3.00;99.90;;;;;;5046363;28;20029;-69
2022/12/02 03:38:00;;;;;;;38.90;15.68;;;3.00;99.90;;;;;;5050278;28;20214;-69
2022/12/02 03:40:26;;;;;;;30.77;12.60;;;3.00;99.90;;;;;;5049676;28;20036;-69
2022/12/02 03:42:52;;;;;;;34.20;12.75;;;3.00;99.90;;;;;;5050365;28;20087;-69
2022/12/02 03:45:18;;;;;;;35.95;13.90;;;3.00;99.90;;;;;;5050772;28;20075;-69
2022/12/02 03:47:44;;;;;;;33.47;13.63;;;2.90;99.90;;;;;;5048990;28;20068;-69
2022/12/02 03:50:11;;;;;;;40.15;15.38;;;2.90;99.90;;;;;;5046190;28;20158;-70
2022/12/02 03:52:37;;;;;;;37.63;14.40;;;2.90;99.90;;;;;;5052193;28;20037;-70
2022/12/02 03:55:03;;;;;;;38.25;16.20;;;2.90;99.90;;;;;;5051958;28;20047;-70
2022/12/02 03:57:32;;;;;;;34.53;13.95;;;2.90;99.90;;;;;;5054368;28;20040;-70
2022/12/02 03:59:58;;;;;;;37.33;15.57;;;2.90;99.90;;;;;;5054338;28;20403;-70
2022/12/02 04:02:23;;;;;;;36.83;12.98;;;2.90;99.90;;;;;;5052047;28;20115;-70
2022/12/02 04:04:49;;;;;;;38.92;14.00;;;2.90;99.90;;;;;;5051737;28;20040;-70
2022/12/02 04:07:14;;;;;;;29.48;11.60;;;2.90;99.90;;;;;;5054117;28;20060;-70
2022/12/02 04:09:40;;;;;;;30.70;12.73;;;2.90;99.90;;;;;;5052810;28;20037;-70
2022/12/02 04:12:06;;;;;;;35.53;14.38;;;2.90;99.90;;;;;;5053758;28;20398;-70
2022/12/02 04:14:31;;;;;;;35.78;13.60;;;2.90;99.90;;;;;;5053954;28;20459;-70
2022/12/02 04:16:57;;;;;;;36.40;13.40;;;2.80;99.90;;;;;;5054813;28;20044;-70
2022/12/02 04:19:23;;;;;;;33.75;12.80;;;2.80;99.90;;;;;;5052434;28;20037;-70
2022/12/02 04:21:49;;;;;;;26.15;10.90;;;2.80;99.90;;;;;;5053052;28;20151;-70
2022/12/02 04:24:15;;;;;;;32.55;12.88;;;2.80;99.90;;;;;;5051698;28;20528;-69
2022/12/02 04:26:40;;;;;;;40.83;13.32;;;2.80;99.90;;;;;;5053377;28;20028;-69
2022/12/02 04:29:06;;;;;;;40.30;15.65;;;2.80;99.90;;;;;;5053856;28;20036;-69
2022/12/02 04:31:31;;;;;;;42.20;15.32;;;2.80;99.90;;;;;;5053936;28;20391;-69
2022/12/02 04:33:57;;;;;;;41.67;15.73;;;2.80;99.90;;;;;;5050169;28;20130;-69
2022/12/02 04:36:23;;;;;;;43.65;15.73;;;2.80;99.90;;;;;;5047718;28;20544;-69
2022/12/02 04:38:48;;;;;;;49.53;15.85;;;2.80;99.90;;;;;;5052761;28;20063;-69
2022/12/02 04:41:14;;;;;;;35.95;12.00;;;2.70;99.90;;;;;;5053309;28;20037;-69
2022/12/02 04:43:40;;;;;;;37.28;13.05;;;2.70;99.90;;;;;;5054113;28;20147;-69
2022/12/02 04:46:05;;;;;;;47.15;16.00;;;2.70;99.90;;;;;;5052333;28;20037;-69
2022/12/02 04:48:31;;;;;;;42.67;16.08;;;2.70;99.90;;;;;;5052878;28;20025;-69
2022/12/02 04:50:57;;;;;;;44.65;17.65;;;2.70;99.90;;;;;;5052889;28;20457;-69
2022/12/02 04:53:22;;;;;;;42.25;16.27;;;2.70;99.90;;;;;;5052796;28;20078;-68
2022/12/02 04:55:48;;;;;;;46.05;16.85;;;2.70;99.90;;;;;;5052924;28;20449;-69
2022/12/02 04:58:14;;;;;;;42.30;15.88;;;2.60;99.90;;;;;;5051514;28;20043;-69
2022/12/02 05:00:39;;;;;;;48.83;16.98;;;2.70;99.90;;;;;;5051019;28;20078;-69
2022/12/02 05:03:05;;;;;;;45.40;17.58;;;2.70;99.90;;;;;;5051559;28;20657;-69
2022/12/02 05:05:30;;;;;;;43.20;15.15;;;2.70;99.90;;;;;;5051551;28;20033;-70
2022/12/02 05:07:56;;;;;;;41.53;16.65;;;2.70;99.90;;;;;;5050850;28;20068;-70
2022/12/02 05:10:22;;;;;;;42.88;16.05;;;2.60;99.90;;;;;;5052098;28;20733;-70
2022/12/02 05:12:47;;;;;;;45.42;15.85;;;2.60;99.90;;;;;;5052768;28;20040;-70
2022/12/02 05:15:13;;;;;;;46.75;17.65;;;2.60;99.90;;;;;;5045702;28;20056;-70
2022/12/02 05:17:39;;;;;;;46.90;18.23;;;2.60;99.90;;;;;;5049478;28;20032;-70
2022/12/02 05:20:05;;;;;;;47.97;18.42;;;2.60;99.90;;;;;;5051781;28;20082;-69
2022/12/02 05:22:31;;;;;;;48.53;16.55;;;2.60;99.90;;;;;;5050491;28;20784;-70
2022/12/02 05:24:56;;;;;;;53.05;18.70;;;2.60;99.90;;;;;;5049397;28;20628;-70
2022/12/02 05:27:22;;;;;;;50.67;16.92;;;2.70;99.90;;;;;;5052129;28;20036;-70
2022/12/02 05:29:47;;;;;;;44.88;16.55;;;2.60;99.90;;;;;;5052052;28;20090;-70
2022/12/02 05:32:13;;;;;;;50.50;17.27;;;2.60;99.90;;;;;;5050250;28;20041;-70
2022/12/02 05:34:38;;;;;;;47.28;18.50;;;2.60;99.90;;;;;;5048726;28;20062;-70
2022/12/02 05:37:04;;;;;;;45.90;16.33;;;2.60;99.90;;;;;;5051453;28;20041;-70
2022/12/02 05:39:30;;;;;;;46.20;15.75;;;2.60;99.90;;;;;;5049888;28;20090;-70
2022/12/02 05:42:01;;;;;;;49.28;18.15;;;2.60;99.90;;;;;;5050886;28;20520;-70
2022/12/02 05:44:27;;;;;;;43.80;16.83;;;2.70;99.90;;;;;;5052307;28;20067;-70
2022/12/02 05:46:59;;;;;;;48.75;16.48;;;2.70;99.90;;;;;;5051122;28;20037;-70
2022/12/02 05:49:29;;;;;;;50.58;15.93;;;2.60;99.90;;;;;;5051440;28;20048;-70
2022/12/02 05:51:58;;;;;;;51.60;15.75;;;2.60;99.90;;;;;;5048936;28;20092;-70
2022/12/02 05:54:25;;;;;;;45.30;15.32;;;2.60;99.90;;;;;;5051118;28;20033;-70
2022/12/02 05:56:51;;;;;;;46.08;17.45;;;2.60;99.90;;;;;;5050136;28;20036;-70
2022/12/02 05:59:19;;;;;;;41.83;14.80;;;2.60;99.90;;;;;;5049389;28;20090;-70
2022/12/02 06:01:50;;;;;;;45.28;16.38;;;2.60;99.90;;;;;;5047893;28;20037;-70
2022/12/02 06:04:30;;;;;;;48.88;16.38;;;2.60;99.90;;;;;;5049002;28;20041;-70
2022/12/02 06:06:59;;;;;;;48.33;17.95;;;2.60;99.90;;;;;;5049808;28;20040;-70
2022/12/02 06:09:29;;;;;;;52.05;18.75;;;2.60;99.90;;;;;;5052657;28;20036;-70
2022/12/02 06:11:56;;;;;;;51.35;18.73;;;2.60;99.90;;;;;;5048725;28;20573;-70
2022/12/02 06:14:24;;;;;;;53.15;19.13;;;2.60;99.90;;;;;;5048322;28;20041;-70
2022/12/02 06:16:55;;;;;;;58.95;18.38;;;2.60;99.90;;;;;;5047097;28;20044;-70
2022/12/02 06:19:45;;;;;;;53.15;18.25;;;2.60;99.90;;;;;;5050374;28;20036;-70
2022/12/02 06:22:21;;;;;;;56.05;17.50;;;2.50;99.90;;;;;;5042399;28;20103;-70
2022/12/02 06:27:21;;;;;;;51.30;17.65;;;2.50;99.90;;;;;;5046598;28;20650;-65
2022/12/02 06:29:58;;;;;;;59.05;19.38;;;2.50;99.90;;;;;;5044676;28;20032;-65
2022/12/02 06:32:34;;;;;;;51.63;17.00;;;2.50;99.90;;;;;;5045755;28;20033;-65
2022/12/02 06:35:00;;;;;;;61.47;20.85;;;2.50;99.90;;;;;;5047353;28;20049;-64
2022/12/02 06:37:29;;;;;;;57.63;18.52;;;2.50;99.90;;;;;;5026217;28;20081;-65
2022/12/02 06:39:57;;;;;;;58.92;18.63;;;2.50;99.90;;;;;;5025172;28;20080;-65
2022/12/02 06:42:31;;;;;;;60.50;19.52;;;2.50;99.90;;;;;;5028092;28;20041;-64
2022/12/02 06:45:26;;;;;;;49.45;17.30;;;2.50;99.90;;;;;;5026404;28;20746;-65
2022/12/02 06:48:03;;;;;;;56.40;18.63;;;2.50;99.90;;;;;;5037772;28;20514;-65
2022/12/02 06:50:44;;;;;;;51.78;18.67;;;2.40;99.90;;;;;;5025455;28;20041;-65
2022/12/02 06:53:28;;;;;;;;;;;2.40;99.90;;;;;;5024681;28;20040;-65
2022/12/02 06:56:05;;;;;;;47.97;19.58;;;2.40;99.90;;;;;;5024971;28;19917;-65
2022/12/02 06:58:45;;;;;;;58.70;20.92;;;2.40;99.90;;;;;;5028139;28;20071;-65
2022/12/02 07:01:22;;;;;;;61.88;22.23;;;2.40;99.90;;;;;;5027789;28;20052;-65
2022/12/02 07:04:12;;;;;;;61.72;22.17;;;2.40;99.90;;;;;;5029695;28;20029;-65
2022/12/02 07:06:40;;;;;;;58.55;20.02;;;2.40;99.90;;;;;;5023932;28;20414;-65
2022/12/02 07:09:19;;;;;;;49.45;18.45;;;2.40;99.90;;;;;;5034060;28;20422;-65
2022/12/02 07:11:50;;;;;;;55.90;21.63;;;2.40;99.90;;;;;;5021059;28;20051;-65
2022/12/02 07:14:23;;;;;;;51.60;19.05;;;2.40;99.90;;;;;;5033947;28;20056;-65
2022/12/02 07:16:50;;;;;;;52.33;19.23;;;2.40;99.90;;;;;;5029048;28;20083;-65
2022/12/02 07:19:19;;;;;;;52.90;19.95;;;2.40;99.90;;;;;;5032798;28;20084;-65
2022/12/02 07:21:45;;;;;;;59.55;21.10;;;2.40;99.90;;;;;;5030863;28;20073;-65
2022/12/02 07:24:17;;;;;;;60.58;19.45;;;2.40;99.90;;;;;;5034022;28;20046;-65
2022/12/02 07:26:45;;;;;;;55.85;20.40;;;2.40;99.90;;;;;;5043546;28;20039;-65
2022/12/02 07:29:26;;;;;;;58.13;19.33;;;2.40;99.90;;;;;;5037656;28;20041;-65
2022/12/02 07:31:52;;;;;;;39.80;15.48;;;2.40;99.90;;;;;;5038598;28;20073;-65
2022/12/02 07:34:17;;;;;;;59.08;19.63;;;2.40;99.90;;;;;;5041758;28;20449;-65
2022/12/02 07:36:43;;;;;;;52.80;16.65;;;2.40;99.90;;;;;;5036945;28;20444;-65
2022/12/02 07:39:09;;;;;;;64.78;23.92;;;2.40;99.90;;;;;;5032247;28;20501;-65
2022/12/02 07:41:34;;;;;;;66.40;21.58;;;2.40;99.90;;;;;;5038014;28;20075;-65
2022/12/02 07:44:00;;;;;;;59.85;23.33;;;2.40;99.90;;;;;;5037371;28;20495;-65
2022/12/02 07:46:26;;;;;;;58.80;20.67;;;2.50;99.90;;;;;;5043208;28;20068;-65
2022/12/02 07:48:51;;;;;;;66.03;21.90;;;2.50;99.90;;;;;;5047511;28;20620;-65
2022/12/02 07:51:17;;;;;;;59.15;21.52;;;2.50;99.90;;;;;;5044965;28;20045;-65
2022/12/02 07:53:42;;;;;;;65.60;24.40;;;2.50;99.90;;;;;;5035642;28;20502;-65
2022/12/02 07:56:08;;;;;;;60.40;20.13;;;2.50;99.90;;;;;;5035564;28;20108;-65
2022/12/02 07:58:34;;;;;;;58.10;21.02;;;2.50;99.90;;;;;;5037678;28;20037;-65
2022/12/02 08:00:59;;;;;;;63.67;20.60;;;2.50;99.90;;;;;;5036082;28;20087;-65
2022/12/02 08:03:25;;;;;;;64.50;22.80;;;2.50;99.90;;;;;;5037301;28;20042;-65
2022/12/02 08:05:50;;;;;;;59.70;21.60;;;2.50;99.90;;;;;;5029753;28;20506;-65
2022/12/02 08:08:16;;;;;;;62.78;20.83;;;2.50;99.90;;;;;;5031570;28;20037;-65
2022/12/02 08:10:41;;;;;;;61.17;21.83;;;2.50;99.90;;;;;;5045150;28;20103;-65
2022/12/02 08:13:07;;;;;;;61.78;21.05;;;2.50;99.90;;;;;;5050592;28;20448;-65
2022/12/02 08:15:33;;;;;;;63.38;20.73;;;2.50;99.90;;;;;;5036926;28;20037;-65
2022/12/02 08:17:58;;;;;;;65.40;21.42;;;2.50;99.90;;;;;;5056468;28;20037;-65
2022/12/02 08:20:24;;;;;;;64.20;22.70;;;2.50;99.90;;;;;;5036826;28;20029;-65
2022/12/02 08:22:51;;;;;;;66.72;21.90;;;2.50;99.90;;;;;;5043085;28;20038;-65
2022/12/02 08:25:17;;;;;;;67.35;23.38;;;2.50;99.90;;;;;;5050959;28;20088;-65
2022/12/02 08:27:42;;;;;;;66.88;22.63;;;2.50;99.90;;;;;;5036862;28;20498;-65
2022/12/02 08:30:09;;;;;;;53.30;18.08;;;2.60;99.90;;;;;;5037430;28;20034;-65
2022/12/02 08:32:35;;;;;;;62.75;22.00;;;2.50;99.90;;;;;;5037568;28;20037;-65
2022/12/02 08:35:01;;;;;;;76.97;24.40;;;2.50;99.90;;;;;;5029019;28;20756;-65
2022/12/02 08:37:26;;;;;;;66.35;21.27;;;2.60;99.90;;;;;;5034369;28;20120;-65
2022/12/02 08:39:52;;;;;;;70.05;22.67;;;2.60;99.90;;;;;;5026573;28;20060;-65
2022/12/02 08:42:18;;;;;;;66.50;22.75;;;2.60;99.90;;;;;;5028152;28;20359;-65
2022/12/02 08:44:44;;;;;;;73.57;23.08;;;2.60;99.90;;;;;;5023819;28;20572;-65
2022/12/02 08:47:09;;;;;;;62.05;20.20;;;2.60;99.90;;;;;;5029520;28;20026;-65
2022/12/02 08:49:35;;;;;;;65.10;23.88;;;2.60;99.90;;;;;;5036566;28;20048;-65
2022/12/02 08:52:01;;;;;;;56.88;21.52;;;2.60;99.90;;;;;;5031366;28;20073;-65
2022/12/02 08:54:27;;;;;;;58.78;21.45;;;2.60;99.90;;;;;;5032794;28;20104;-65
2022/12/02 08:56:53;;;;;;;61.33;18.75;;;2.60;99.90;;;;;;5023936;28;20037;-65
2022/12/02 08:59:19;;;;;;;66.70;22.98;;;2.60;99.90;;;;;;5030607;28;20038;-65
2022/12/02 09:01:44;;;;;;;57.67;19.70;;;2.60;99.90;;;;;;5028981;28;20088;-65
2022/12/02 09:04:10;;;;;;;61.35;22.77;;;2.60;99.90;;;;;;5034208;28;20034;-65
2022/12/02 09:06:35;;;;;;;80.38;24.13;;;2.60;99.90;;;;;;5024207;28;20030;-65
2022/12/02 09:09:01;;;;;;;70.63;23.02;;;2.60;99.90;;;;;;5030212;28;20542;-65
2022/12/02 09:11:27;;;;;;;60.72;20.08;;;2.60;99.90;;;;;;5041652;28;20119;-65
2022/12/02 09:13:53;;;;;;;81.82;25.08;;;2.70;99.90;;;;;;5031384;28;20055;-65
2022/12/02 09:16:18;;;;;;;59.30;20.75;;;2.70;99.90;;;;;;5033074;28;20068;-66
2022/12/02 09:18:44;;;;;;;72.25;22.42;;;2.70;99.90;;;;;;5037192;28;20025;-66
2022/12/02 09:21:10;;;;;;;62.25;22.13;;;2.80;99.90;;;;;;5048743;28;20549;-64
2022/12/02 09:23:35;;;;;;;71.45;22.63;;;2.80;99.90;;;;;;5033475;28;20124;-64
2022/12/02 09:26:01;;;;;;;49.33;16.55;;;2.70;99.90;;;;;;5030989;28;20390;-65
2022/12/02 09:28:26;;;;;;;57.47;19.52;;;2.70;99.90;;;;;;5021799;28;20245;-65
2022/12/02 09:30:52;;;;;;;55.10;20.40;;;2.70;99.90;;;;;;5041182;28;20398;-65
2022/12/02 09:33:18;;;;;;;64.78;20.67;;;2.70;99.90;;;;;;5033269;28;20037;-65
2022/12/02 09:35:43;;;;;;;61.08;21.17;;;2.70;99.90;;;;;;5032907;28;20521;-65
2022/12/02 09:38:09;;;;;;;56.40;18.95;;;2.80;99.90;;;;;;5032156;28;20033;-65
2022/12/02 09:40:35;;;;;;;62.22;21.75;;;2.70;99.90;;;;;;5032046;28;20172;-65
2022/12/02 09:43:03;;;;;;;58.42;19.52;;;2.70;99.90;;;;;;5034896;28;20037;-65
2022/12/02 09:45:30;;;;;;;59.00;20.73;;;2.70;99.90;;;;;;5036813;28;20116;-65
2022/12/02 09:47:55;;;;;;;78.85;23.83;;;2.60;99.90;;;;;;5042936;28;20068;-65
2022/12/02 09:50:21;;;;;;;55.08;19.25;;;2.60;99.90;;;;;;5037864;28;20044;-65
2022/12/02 09:52:48;;;;;;;61.97;21.30;;;2.60;99.90;;;;;;5038230;28;20037;-65
2022/12/02 09:55:17;;;;;;;66.10;21.02;;;2.60;99.90;;;;;;5034397;28;20402;-65
2022/12/02 09:57:43;;;;;;;61.95;20.83;;;2.60;99.90;;;;;;5034092;28;20553;-65
2022/12/02 10:00:18;;;;;;;57.47;19.50;;;2.60;99.90;;;;;;5040743;28;20041;-65
2022/12/02 10:02:46;;;;;;;54.33;19.17;;;2.60;99.90;;;;;;5032920;28;20037;-65
2022/12/02 10:05:14;;;;;;;55.95;18.65;;;2.60;99.90;;;;;;5032708;28;20041;-65
2022/12/02 10:07:41;;;;;;;52.00;17.77;;;2.60;99.90;;;;;;5032806;28;20497;-65
2022/12/02 10:10:11;;;;;;;69.43;20.52;;;2.60;99.90;;;;;;5031565;28;20033;-65
2022/12/02 10:12:37;;;;;;;43.55;15.52;;;2.60;99.90;;;;;;5037965;28;20064;-65
2022/12/02 10:15:03;;;;;;;44.30;17.42;;;2.60;99.90;;;;;;5032724;28;20309;-65
2022/12/02 10:17:29;;;;;;;48.08;17.05;;;2.60;99.90;;;;;;5048044;28;20098;-65
2022/12/02 10:19:55;;;;;;;49.40;17.13;;;2.60;99.90;;;;;;5026365;28;20053;-65
2022/12/02 10:22:21;;;;;;;45.00;15.65;;;2.70;99.90;;;;;;5023919;28;20044;-65
2022/12/02 10:24:48;;;;;;;51.60;17.33;;;2.70;99.90;;;;;;5026052;28;20041;-65
2022/12/02 10:27:29;;;;;;;48.85;16.92;;;2.70;99.90;;;;;;5046992;28;20029;-65
2022/12/02 10:30:15;;;;;;;;;;;2.60;99.90;;;;;;5025979;28;20060;-63
2022/12/02 10:32:40;;;;;;;42.88;15.35;;;2.60;99.90;;;;;;5033800;28;19917;-62
2022/12/02 10:35:09;;;;;;;45.33;14.82;;;2.60;99.90;;;;;;5025235;28;20084;-64
2022/12/02 10:37:35;;;;;;;47.03;15.15;;;2.60;99.90;;;;;;5028607;28;20041;-64
2022/12/02 10:40:22;;;;;;;39.03;15.73;;;2.60;99.90;;;;;;5038306;28;20037;-64
2022/12/02 10:43:08;;;;;;;51.30;17.55;;;2.60;99.90;;;;;;5041264;28;20048;-65
2022/12/02 10:45:34;;;;;;;48.33;17.48;;;2.60;99.90;;;;;;5025128;28;20034;-64
2022/12/02 10:48:16;;;;;;;54.42;17.52;;;2.60;99.90;;;;;;5029434;28;20140;-65
2022/12/02 10:50:42;;;;;;;46.83;17.60;;;2.60;99.90;;;;;;5019678;28;20037;-65
2022/12/02 10:53:14;;;;;;;46.88;17.98;;;2.60;99.90;;;;;;5034077;28;20380;-65
2022/12/02 10:55:40;;;;;;;42.83;16.67;;;2.60;99.90;;;;;;5022186;28;20041;-65
2022/12/02 10:58:12;;;;;;;50.78;17.92;;;2.60;99.90;;;;;;5035709;28;20041;-64
2022/12/02 11:00:37;;;;;;;;;;;2.60;99.90;;;;;;5025239;28;20124;-65
2022/12/02 11:03:04;;;;;;;53.45;17.25;;;2.50;99.90;;;;;;5045954;28;20369;-65
2022/12/02 11:05:34;;;;;;;52.67;18.63;;;2.60;99.90;;;;;;5037470;28;20064;-65
2022/12/02 11:08:01;;;;;;;57.30;19.63;;;2.50;99.90;;;;;;5026612;28;20037;-65
2022/12/02 11:10:34;;;;;;;53.60;19.48;;;2.50;99.90;;;;;;5026332;28;20537;-66
2022/12/02 11:13:23;;;;;;;48.92;18.40;;;2.50;99.90;;;;;;5039179;28;20045;-66
2022/12/02 11:15:50;;;;;;;54.13;18.75;;;2.50;99.90;;;;;;4988792;28;20132;-65
2022/12/02 11:18:22;;;;;;;59.05;19.90;;;2.50;99.90;;;;;;5022825;28;20042;-65
2022/12/02 11:20:52;;;;;;;46.72;17.80;;;2.50;99.90;;;;;;5026736;28;20144;-66
2022/12/02 11:23:29;;;;;;;41.27;13.80;;;2.50;99.90;;;;;;5034011;28;20033;-65
2022/12/02 11:25:55;;;;;;;59.53;19.67;;;2.50;99.90;;;;;;5034781;28;20792;-65
2022/12/02 11:28:27;;;;;;;56.33;20.88;;;2.50;99.90;;;;;;5041984;28;20045;-65
2022/12/02 11:31:11;;;;;;;;;;;2.40;99.90;;;;;;5044094;28;20044;-64
2022/12/02 11:33:42;;;;;;;57.88;20.10;;;2.40;99.90;;;;;;5026535;28;20011;-66
2022/12/02 11:36:07;;;;;;;71.07;23.52;;;2.50;99.90;;;;;;5018060;28;20041;-65
2022/12/02 11:39:09;;;;;;;66.20;23.05;;;2.50;99.90;;;;;;5027317;28;20041;-65
2022/12/02 11:41:46;;;;;;;63.80;23.00;;;2.50;99.90;;;;;;5003919;28;20107;-65
2022/12/02 11:44:21;;;;;;;69.00;23.38;;;2.50;99.90;;;;;;5027779;28;20102;-65
2022/12/02 11:46:49;;;;;;;75.90;24.65;;;2.50;99.90;;;;;;5032156;28;20041;-65
2022/12/02 11:49:33;;;;;;;70.03;23.23;;;2.50;99.90;;;;;;5027192;28;20040;-65
2022/12/02 11:52:13;;;;;;;76.13;26.33;;;2.50;99.90;;;;;;5027935;28;20042;-65
2022/12/02 11:54:42;;;;;;;68.97;26.10;;;2.50;99.90;;;;;;5022079;28;20038;-65
2022/12/02 11:57:25;;;;;;;68.53;24.77;;;2.60;99.90;;;;;;5030075;28;20083;-66
2022/12/02 11:59:52;;;;;;;79.05;26.05;;;2.60;99.90;;;;;;5029486;28;20121;-66
2022/12/02 12:02:20;;;;;;;71.18;26.33;;;2.60;99.90;;;;;;5022659;28;20128;-65
2022/12/02 12:05:01;;;;;;;65.82;24.13;;;2.60;99.90;;;;;;5030168;28;20045;-65
2022/12/02 12:07:49;;;;;;;79.03;28.03;;;2.60;99.90;;;;;;5025641;28;20087;-65
2022/12/02 12:10:31;;;;;;;76.38;27.60;;;2.60;99.90;;;;;;5030339;28;20282;-65
2022/12/02 12:13:13;;;;;;;73.68;27.15;;;2.60;99.90;;;;;;5048656;28;20049;-65
2022/12/02 12:15:50;;;;;;;71.18;25.20;;;2.60;99.90;;;;;;5033213;28;20048;-65
2022/12/02 12:18:38;;;;;;;60.85;23.90;;;2.60;99.90;;;;;;5034748;28;20057;-65
2022/12/02 12:21:04;;;;;;;76.03;28.15;;;2.60;99.90;;;;;;5033768;28;20037;-65
2022/12/02 12:23:36;;;;;;;74.65;28.52;;;2.60;99.90;;;;;;5026108;28;20050;-66
2022/12/02 12:26:02;;;;;;;67.05;23.58;;;2.60;99.90;;;;;;5041253;22;20033;-70
2022/12/02 12:28:31;;;;;;;80.43;25.90;;;2.70;99.90;;;;;;5023005;28;20058;-70
2022/12/02 12:30:58;;;;;;;73.03;27.48;;;2.70;99.90;;;;;;5020703;28;20099;-71
2022/12/02 12:33:24;;;;;;;69.88;23.65;;;2.60;99.90;;;;;;5032596;28;20072;-70
2022/12/02 12:35:53;;;;;;;71.38;26.95;;;2.60;99.90;;;;;;5034139;28;20460;-71
2022/12/02 12:38:20;;;;;;;68.07;25.58;;;2.70;99.90;;;;;;5033716;28;20041;-71
2022/12/02 12:40:45;;;;;;;68.78;24.83;;;2.60;99.90;;;;;;5030615;28;20120;-70
2022/12/02 12:43:11;;;;;;;71.93;26.48;;;2.70;99.90;;;;;;5032470;28;20154;-71
2022/12/02 12:45:37;;;;;;;71.18;25.08;;;2.70;99.90;;;;;;5027147;28;20037;-70
2022/12/02 12:48:03;;;;;;;70.60;25.98;;;2.70;99.90;;;;;;5028737;28;20036;-70
2022/12/02 12:50:28;;;;;;;81.40;28.10;;;2.70;99.90;;;;;;5033420;28;20029;-71
2022/12/02 12:52:54;;;;;;;68.00;24.40;;;2.60;99.90;;;;;;5032548;28;20056;-71